createdAt,value
2018-03-04T09:39:04.748Z,63.00
2018-03-04T09:41:31.646Z,61.20
2018-03-04T09:43:57.856Z,60.50
2018-03-04T09:46:24.020Z,60.50
2018-03-04T09:48:50.205Z,61.40
2018-03-04T09:51:17.122Z,62.60
2018-03-04T09:53:44.168Z,63.50
2018-03-04T09:56:10.339Z,63.00
2018-03-04T09:58:37.258Z,66.00
2018-03-04T10:01:03.693Z,67.70
2018-03-04T10:03:29.849Z,67.60
2018-03-04T10:05:56.785Z,61.90
2018-03-04T10:08:23.001Z,61.20
2018-03-04T10:10:49.199Z,61.10
2018-03-04T10:13:16.107Z,62.60
2018-03-04T10:15:42.275Z,62.10
2018-03-04T10:18:08.447Z,62.40
2018-03-04T10:20:34.597Z,62.60
2018-03-04T10:23:00.784Z,61.10
2018-03-04T10:25:26.954Z,61.20
2018-03-04T10:27:53.108Z,60.70
2018-03-04T10:30:19.290Z,60.80
2018-03-04T10:32:45.492Z,60.20
2018-03-04T10:35:11.660Z,61.00
2018-03-04T10:37:37.815Z,60.50
2018-03-04T10:40:03.996Z,60.30
2018-03-04T10:42:30.906Z,60.50
2018-03-04T10:44:57.131Z,59.80
2018-03-04T10:47:23.313Z,59.10
2018-03-04T10:49:49.524Z,59.40
2018-03-04T10:52:16.436Z,59.30
2018-03-04T10:54:43.348Z,59.50
2018-03-04T10:57:09.511Z,59.00
2018-03-04T10:59:35.682Z,58.80
2018-03-04T11:02:04.158Z,58.30
2018-03-04T11:04:30.335Z,58.50
2018-03-04T11:06:57.240Z,58.40
2018-03-04T11:09:23.444Z,57.80
2018-03-04T11:11:49.620Z,57.30
2018-03-04T11:14:15.824Z,57.30
2018-03-04T11:16:42.259Z,57.00
2018-03-04T11:19:08.430Z,57.00
2018-03-04T11:21:34.630Z,56.90
2018-03-04T11:24:00.779Z,55.90
2018-03-04T11:26:27.013Z,55.80
2018-03-04T11:28:54.052Z,56.40
2018-03-04T11:31:20.579Z,56.40
2018-03-04T11:33:47.116Z,56.30
2018-03-04T11:36:14.019Z,65.50
2018-03-04T11:38:42.218Z,64.60
2018-03-04T11:41:09.218Z,64.10
2018-03-04T11:43:35.375Z,62.50
2018-03-04T11:46:02.326Z,67.70
2018-03-04T11:48:28.520Z,65.80
2018-03-04T11:50:54.668Z,61.90
2018-03-04T11:53:21.117Z,62.70
2018-03-04T11:55:47.303Z,63.30
2018-03-04T11:58:13.473Z,60.70
2018-03-04T12:00:39.673Z,62.40
2018-03-04T12:03:06.086Z,60.40
2018-03-04T12:05:33.828Z,55.50
2018-03-04T12:08:00.131Z,54.70
2018-03-04T12:10:27.041Z,56.40
2018-03-04T12:12:53.260Z,55.30
2018-03-04T12:15:21.644Z,55.60
2018-03-04T12:17:51.070Z,56.70
2018-03-04T12:20:20.005Z,57.80
2018-03-04T12:22:48.893Z,57.20
2018-03-04T12:25:17.855Z,60.20
2018-03-04T12:27:44.606Z,60.00
2018-03-04T12:30:12.355Z,62.70
2018-03-04T12:32:38.904Z,64.10
2018-03-04T12:35:05.819Z,60.60
2018-03-04T12:37:32.695Z,57.40
2018-03-04T12:39:59.932Z,57.40
2018-03-04T12:42:26.094Z,57.30
2018-03-04T12:44:52.253Z,58.00
2018-03-04T12:47:18.468Z,58.40
2018-03-04T12:49:44.656Z,57.00
2018-03-04T12:52:10.818Z,57.00
2018-03-04T12:54:37.737Z,56.10
2018-03-04T12:57:03.914Z,56.20
2018-03-04T12:59:30.843Z,59.30
2018-03-04T13:01:58.479Z,61.90
2018-03-04T13:04:25.639Z,68.50
2018-03-04T13:06:51.849Z,64.20
2018-03-04T13:09:18.004Z,66.20
2018-03-04T13:11:44.348Z,67.10
2018-03-04T13:14:10.524Z,68.30
2018-03-04T13:19:06.805Z,71.80
2018-03-04T13:21:33.495Z,70.80
2018-03-04T13:24:00.653Z,70.20
2018-03-04T13:26:29.054Z,71.30
2018-03-04T13:28:55.834Z,74.30
2018-03-04T13:31:21.985Z,74.30
2018-03-04T13:33:48.431Z,73.40
2018-03-04T13:36:15.358Z,72.70
2018-03-04T13:38:41.532Z,69.00
2018-03-04T13:41:07.748Z,68.90
2018-03-04T13:43:33.902Z,68.50
2018-03-04T13:46:00.068Z,68.80
2018-03-04T13:48:26.224Z,69.00
2018-03-04T13:50:52.382Z,69.00
2018-03-04T13:53:18.598Z,69.40
2018-03-04T13:55:44.751Z,69.90
2018-03-04T13:58:10.912Z,70.30
2018-03-04T14:00:37.178Z,70.60
2018-03-04T14:03:03.294Z,71.70
2018-03-04T14:05:29.584Z,72.10
2018-03-04T14:10:23.841Z,74.10
2018-03-04T14:17:45.840Z,73.70
2018-03-04T14:20:12.024Z,74.40
2018-03-04T14:22:38.179Z,75.00
2018-03-04T14:25:05.104Z,77.20
2018-03-04T14:27:31.276Z,76.90
2018-03-04T14:29:58.420Z,79.60
2018-03-04T14:34:52.777Z,80.40
2018-03-04T14:37:18.940Z,81.20
2018-03-04T14:44:41.253Z,57.70
2018-03-04T14:47:07.457Z,58.10
2018-03-04T14:49:33.636Z,57.60
2018-03-04T14:52:00.536Z,58.70
2018-03-04T14:54:26.694Z,58.00
2018-03-04T14:56:52.887Z,58.60
2018-03-04T14:59:19.065Z,58.40
2018-03-04T15:01:45.216Z,58.30
2018-03-04T15:04:12.128Z,58.90
2018-03-04T15:06:38.672Z,57.60
2018-03-04T15:09:04.846Z,57.70
2018-03-04T15:11:31.036Z,57.70
2018-03-04T15:13:57.202Z,57.60
2018-03-04T15:16:23.397Z,58.00
2018-03-04T15:18:49.596Z,58.20
2018-03-04T15:21:15.812Z,59.30
2018-03-04T15:23:42.727Z,59.90
2018-03-04T15:26:09.659Z,58.80
2018-03-04T15:28:36.553Z,58.90
2018-03-04T15:31:02.709Z,58.40
2018-03-04T15:33:28.867Z,58.40
2018-03-04T15:35:55.049Z,57.50
2018-03-04T15:38:21.196Z,57.40
2018-03-04T15:40:48.099Z,58.00
2018-03-04T15:43:14.653Z,57.00
2018-03-04T15:45:40.787Z,57.30
2018-03-04T15:48:06.964Z,57.50
2018-03-04T15:50:33.188Z,57.50
2018-03-04T15:53:00.115Z,58.30
2018-03-04T15:55:26.246Z,57.80
2018-03-04T15:57:52.467Z,58.10
2018-03-04T16:00:18.639Z,58.00
2018-03-04T16:02:45.535Z,59.50
2018-03-04T16:05:11.750Z,63.20
2018-03-04T16:07:38.156Z,61.80
2018-03-04T16:10:05.069Z,62.00
2018-03-04T16:12:31.621Z,60.10
2018-03-04T16:14:57.786Z,58.70
2018-03-04T16:17:24.384Z,59.20
2018-03-04T16:19:50.613Z,59.50
2018-03-04T16:22:16.769Z,59.30
2018-03-04T16:24:42.908Z,59.80
2018-03-04T16:27:09.839Z,60.10
2018-03-04T16:29:35.999Z,59.60
2018-03-04T16:32:02.218Z,60.00
2018-03-04T16:34:28.415Z,59.60
2018-03-04T16:36:54.642Z,59.90
2018-03-04T16:39:21.503Z,61.90
2018-03-04T16:41:47.705Z,62.50
2018-03-04T16:44:13.858Z,64.10
2018-03-04T16:46:40.016Z,64.40
2018-03-04T16:49:06.455Z,60.50
2018-03-04T16:51:32.656Z,60.40
2018-03-04T16:53:58.816Z,60.30
2018-03-04T16:56:25.139Z,60.80
2018-03-04T16:58:51.341Z,61.70
2018-03-04T17:01:18.240Z,61.80
2018-03-04T17:03:44.428Z,65.00
2018-03-04T17:06:10.632Z,61.20
2018-03-04T17:08:37.076Z,63.30
2018-03-04T17:11:03.279Z,67.30
2018-03-04T17:13:29.439Z,66.60
2018-03-04T17:15:55.654Z,61.50
2018-03-04T17:18:21.825Z,60.90
2018-03-04T17:20:48.740Z,62.70
2018-03-04T17:23:14.891Z,68.20
2018-03-04T17:25:41.059Z,65.50
2018-03-04T17:28:07.235Z,65.70
2018-03-04T17:30:33.386Z,65.80
2018-03-04T17:32:59.771Z,66.00
2018-03-04T17:35:25.971Z,66.10
2018-03-04T17:37:52.861Z,67.80
2018-03-04T17:40:19.120Z,65.80
2018-03-04T17:42:45.263Z,64.40
2018-03-04T17:45:13.370Z,66.20
2018-03-04T17:47:39.839Z,67.40
2018-03-04T17:50:06.003Z,75.20
2018-03-04T17:52:32.159Z,68.60
2018-03-04T17:54:58.328Z,65.90
2018-03-04T17:57:24.696Z,65.70
2018-03-04T17:59:50.884Z,65.80
2018-03-04T18:02:17.792Z,67.60
2018-03-04T18:04:43.956Z,66.70
2018-03-04T18:07:10.118Z,66.90
2018-03-04T18:09:36.488Z,65.50
2018-03-04T18:12:02.650Z,68.00
2018-03-04T18:14:28.800Z,66.80
2018-03-04T18:16:54.981Z,66.10
2018-03-04T18:19:21.191Z,64.90
2018-03-04T18:21:47.376Z,65.10
2018-03-04T18:24:13.694Z,67.20
2018-03-04T18:26:39.876Z,67.40
2018-03-04T18:29:06.048Z,67.00
2018-03-04T18:31:32.360Z,67.50
2018-03-04T18:33:59.255Z,65.70
2018-03-04T18:36:26.207Z,65.10
2018-03-04T18:38:52.393Z,65.30
2018-03-04T18:41:18.795Z,65.00
2018-03-04T18:43:45.720Z,66.30
2018-03-04T18:46:11.883Z,65.70
2018-03-04T18:48:38.184Z,65.70
2018-03-04T18:51:04.348Z,66.10
2018-03-04T18:53:30.529Z,67.80
2018-03-04T18:55:56.888Z,67.70
2018-03-04T18:58:23.047Z,67.50
2018-03-04T19:00:49.596Z,70.40
2018-03-04T19:03:15.775Z,71.40
2018-03-04T19:05:41.951Z,69.90
2018-03-04T19:08:08.140Z,71.50
2018-03-04T19:10:34.528Z,70.30
2018-03-04T19:13:00.684Z,70.60
2018-03-04T19:15:27.577Z,70.80
2018-03-04T19:17:53.776Z,71.90
2018-03-04T19:20:20.664Z,71.80
2018-03-04T19:22:46.815Z,67.80
2018-03-04T19:25:12.991Z,67.80
2018-03-04T19:27:39.208Z,68.10
2018-03-04T19:30:05.385Z,69.10
2018-03-04T19:32:31.533Z,69.40
2018-03-04T19:34:57.708Z,69.50
2018-03-04T19:37:23.861Z,70.00
2018-03-04T19:39:50.757Z,72.70
2018-03-04T19:42:16.936Z,73.20
2018-03-04T19:44:43.820Z,73.60
2018-03-04T19:47:09.990Z,72.90
2018-03-04T19:49:36.164Z,73.50
2018-03-04T19:52:02.316Z,72.50
2018-03-04T19:54:28.608Z,69.20
2018-03-04T19:56:55.547Z,71.70
2018-03-04T19:59:21.704Z,72.40
2018-03-04T20:01:48.609Z,72.80
2018-03-04T20:04:14.771Z,72.20
2018-03-04T20:06:42.540Z,74.40
2018-03-04T20:09:09.449Z,74.20
2018-03-04T20:11:35.613Z,69.80
2018-03-04T20:14:02.133Z,70.40
2018-03-04T20:16:28.289Z,73.50
2018-03-04T20:18:54.435Z,68.90
2018-03-04T20:21:21.370Z,73.60
2018-03-04T20:23:47.532Z,70.60
2018-03-04T20:26:13.708Z,69.60
2018-03-04T20:28:40.178Z,69.80
2018-03-04T20:31:06.335Z,70.00
2018-03-04T20:33:32.977Z,71.00
2018-03-04T20:36:00.489Z,74.80
2018-03-04T20:38:26.666Z,74.20
2018-03-04T20:40:53.568Z,71.30
2018-03-04T20:43:19.732Z,70.50
2018-03-04T20:45:45.920Z,70.60
2018-03-04T20:48:12.079Z,70.70
2018-03-04T20:50:38.731Z,70.70
2018-03-04T20:53:04.951Z,77.40
2018-03-04T20:55:31.145Z,70.10
2018-03-04T20:57:58.336Z,70.50
2018-03-04T21:00:24.508Z,69.80
2018-03-04T21:02:50.701Z,70.20
2018-03-04T21:05:17.344Z,80.00
2018-03-04T21:07:43.687Z,76.10
2018-03-04T21:10:09.853Z,73.60
2018-03-04T21:12:36.268Z,71.30
2018-03-04T21:15:02.444Z,71.30
2018-03-04T21:17:28.677Z,71.70
2018-03-04T21:19:55.603Z,73.30
2018-03-04T21:22:21.780Z,73.20
2018-03-04T21:24:47.959Z,73.80
2018-03-04T21:27:14.112Z,74.00
2018-03-04T21:29:40.291Z,74.50
2018-03-04T21:32:06.453Z,74.30
2018-03-04T21:34:32.612Z,80.60
2018-03-04T21:39:26.699Z,88.90
2018-03-04T21:41:52.856Z,84.80
2018-03-04T21:44:19.748Z,81.90
2018-03-04T21:46:46.695Z,78.90
2018-03-04T21:49:12.865Z,79.40
2018-03-04T21:51:39.040Z,80.20
2018-03-04T21:56:35.934Z,83.20
2018-03-04T21:59:02.237Z,81.30
2018-03-04T22:03:57.408Z,78.80
2018-03-04T22:06:23.590Z,78.80
2018-03-04T22:08:49.751Z,77.00
2018-03-04T22:11:16.172Z,77.60
2018-03-04T22:13:45.287Z,78.00
2018-03-04T22:16:12.081Z,77.60
2018-03-04T22:18:38.295Z,77.80
2018-03-04T22:23:33.808Z,73.80
2018-03-04T22:28:28.220Z,73.40
2018-03-04T22:30:54.384Z,74.20
2018-03-04T22:33:20.537Z,74.10
2018-03-04T22:35:46.718Z,74.70
2018-03-04T22:38:12.889Z,74.90
2018-03-04T22:40:39.059Z,75.30
2018-03-04T22:43:05.240Z,76.40
2018-03-04T22:45:31.388Z,80.70
2018-03-04T22:47:57.538Z,74.50
2018-03-04T22:50:23.712Z,77.00
2018-03-04T22:55:17.768Z,81.30
2018-03-04T22:57:43.943Z,82.20
2018-03-04T23:02:38.006Z,77.70
2018-03-04T23:05:04.164Z,77.60
2018-03-04T23:07:30.313Z,78.70
2018-03-04T23:09:57.584Z,72.40
2018-03-04T23:17:19.900Z,74.90
2018-03-04T23:19:46.076Z,74.40
2018-03-04T23:22:12.313Z,75.50
2018-03-04T23:24:38.492Z,73.50
2018-03-04T23:27:04.661Z,74.50
2018-03-04T23:29:31.592Z,75.80
2018-03-04T23:31:57.767Z,74.50
2018-03-04T23:36:51.876Z,90.20
2018-03-04T23:39:18.792Z,76.00
2018-03-04T23:41:44.959Z,73.60
2018-03-04T23:44:11.184Z,74.00
2018-03-04T23:46:37.332Z,73.50
2018-03-04T23:49:04.248Z,75.00
2018-03-04T23:51:30.416Z,73.10
2018-03-04T23:53:56.575Z,76.70
2018-03-04T23:56:22.731Z,72.60
2018-03-04T23:58:48.899Z,72.30
